sensor_id;sensor_type;location;lat;lon;timestamp;pressure;altitude;pressure_sealevel;temperature;humidity
4570;BME280;2297;51.442;6.996;2023-05-02T00:01:58;100567.53;;;13.24;52.79
4570;BME280;2297;51.442;6.996;2023-05-02T00:04:24;100567.16;;;13.38;52.54
4570;BME280;2297;51.442;6.996;2023-05-02T00:06:51;100575.09;;;13.38;52.79
4570;BME280;2297;51.442;6.996;2023-05-02T00:09:18;100583.00;;;13.39;52.53
4570;BME280;2297;51.442;6.996;2023-05-02T00:11:45;100588.22;;;13.42;52.80
4570;BME280;2297;51.442;6.996;2023-05-02T00:14:13;100587.41;;;13.40;52.46
4570;BME280;2297;51.442;6.996;2023-05-02T00:16:40;100590.44;;;13.26;52.75
4570;BME280;2297;51.442;6.996;2023-05-02T00:19:06;100589.69;;;13.20;52.87
4570;BME280;2297;51.442;6.996;2023-05-02T00:21:33;100599.75;;;13.07;53.33
4570;BME280;2297;51.442;6.996;2023-05-02T00:24:00;100592.28;;;13.23;53.43
4570;BME280;2297;51.442;6.996;2023-05-02T00:26:26;100585.81;;;13.33;53.14
4570;BME280;2297;51.442;6.996;2023-05-02T00:28:53;100594.16;;;13.18;53.54
4570;BME280;2297;51.442;6.996;2023-05-02T00:31:21;100598.28;;;13.31;53.64
4570;BME280;2297;51.442;6.996;2023-05-02T00:33:47;100603.09;;;13.48;52.95
4570;BME280;2297;51.442;6.996;2023-05-02T00:36:15;100598.09;;;13.37;53.07
4570;BME280;2297;51.442;6.996;2023-05-02T00:38:42;100597.88;;;13.45;52.84
4570;BME280;2297;51.442;6.996;2023-05-02T00:41:09;100604.13;;;13.42;53.22
4570;BME280;2297;51.442;6.996;2023-05-02T00:43:36;100604.38;;;13.33;53.68
4570;BME280;2297;51.442;6.996;2023-05-02T00:46:04;100596.88;;;13.49;53.28
4570;BME280;2297;51.442;6.996;2023-05-02T00:48:33;100602.66;;;13.32;53.62
4570;BME280;2297;51.442;6.996;2023-05-02T00:51:02;100592.19;;;12.93;55.00
4570;BME280;2297;51.442;6.996;2023-05-02T00:53:30;100598.75;;;13.12;54.57
4570;BME280;2297;51.442;6.996;2023-05-02T00:55:57;100599.34;;;13.24;54.29
4570;BME280;2297;51.442;6.996;2023-05-02T00:58:24;100595.06;;;13.18;54.25
4570;BME280;2297;51.442;6.996;2023-05-02T01:01:00;100587.84;;;13.25;54.31
4570;BME280;2297;51.442;6.996;2023-05-02T01:03:38;100595.69;;;13.28;54.04
4570;BME280;2297;51.442;6.996;2023-05-02T01:06:15;100595.91;;;13.19;54.26
4570;BME280;2297;51.442;6.996;2023-05-02T01:08:49;100594.94;;;13.23;53.98
4570;BME280;2297;51.442;6.996;2023-05-02T01:11:27;100605.56;;;13.23;54.29
4570;BME280;2297;51.442;6.996;2023-05-02T01:13:58;100605.06;;;13.07;54.63
4570;BME280;2297;51.442;6.996;2023-05-02T01:16:30;100602.56;;;13.02;54.96
4570;BME280;2297;51.442;6.996;2023-05-02T01:19:00;100620.16;;;12.69;55.68
4570;BME280;2297;51.442;6.996;2023-05-02T01:21:29;100622.38;;;12.51;56.33
4570;BME280;2297;51.442;6.996;2023-05-02T01:24:02;100629.75;;;12.74;56.17
4570;BME280;2297;51.442;6.996;2023-05-02T01:26:34;100625.41;;;12.34;57.26
4570;BME280;2297;51.442;6.996;2023-05-02T01:29:05;100628.34;;;12.22;57.61
4570;BME280;2297;51.442;6.996;2023-05-02T01:31:34;100621.59;;;12.47;56.80
4570;BME280;2297;51.442;6.996;2023-05-02T01:34:03;100628.06;;;12.34;57.35
4570;BME280;2297;51.442;6.996;2023-05-02T01:36:31;100633.75;;;12.55;56.67
4570;BME280;2297;51.442;6.996;2023-05-02T01:39:00;100631.50;;;11.97;58.10
4570;BME280;2297;51.442;6.996;2023-05-02T01:41:30;100642.84;;;12.02;57.71
4570;BME280;2297;51.442;6.996;2023-05-02T01:43:58;100643.44;;;11.76;58.85
4570;BME280;2297;51.442;6.996;2023-05-02T01:46:29;100645.56;;;11.99;57.71
4570;BME280;2297;51.442;6.996;2023-05-02T01:48:58;100651.97;;;12.31;56.93
4570;BME280;2297;51.442;6.996;2023-05-02T01:51:29;100658.72;;;12.44;56.78
4570;BME280;2297;51.442;6.996;2023-05-02T01:54:02;100653.00;;;12.63;56.38
4570;BME280;2297;51.442;6.996;2023-05-02T01:56:31;100654.69;;;12.66;56.01
4570;BME280;2297;51.442;6.996;2023-05-02T01:59:01;100667.72;;;12.75;55.54
4570;BME280;2297;51.442;6.996;2023-05-02T02:01:29;100669.06;;;12.57;56.31
4570;BME280;2297;51.442;6.996;2023-05-02T02:03:57;100666.06;;;12.71;55.68
4570;BME280;2297;51.442;6.996;2023-05-02T02:06:24;100671.25;;;12.75;55.39
4570;BME280;2297;51.442;6.996;2023-05-02T02:08:51;100668.38;;;12.85;55.17
4570;BME280;2297;51.442;6.996;2023-05-02T02:11:23;100668.38;;;12.85;55.05
4570;BME280;2297;51.442;6.996;2023-05-02T02:13:55;100671.25;;;12.75;54.94
4570;BME280;2297;51.442;6.996;2023-05-02T02:16:31;100671.00;;;12.86;55.08
4570;BME280;2297;51.442;6.996;2023-05-02T02:19:04;100673.59;;;12.88;54.97
4570;BME280;2297;51.442;6.996;2023-05-02T02:21:33;100682.13;;;12.99;54.48
4570;BME280;2297;51.442;6.996;2023-05-02T02:24:06;100683.97;;;12.97;54.47
4570;BME280;2297;51.442;6.996;2023-05-02T02:26:33;100678.53;;;13.03;54.45
4570;BME280;2297;51.442;6.996;2023-05-02T02:29:00;100674.56;;;12.85;54.76
4570;BME280;2297;51.442;6.996;2023-05-02T02:31:31;100683.00;;;13.01;54.51
4570;BME280;2297;51.442;6.996;2023-05-02T02:33:58;100690.94;;;13.01;54.32
4570;BME280;2297;51.442;6.996;2023-05-02T02:36:30;100681.91;;;13.08;54.08
4570;BME280;2297;51.442;6.996;2023-05-02T02:39:06;100687.44;;;12.99;54.43
4570;BME280;2297;51.442;6.996;2023-05-02T02:41:40;100682.22;;;12.96;54.22
4570;BME280;2297;51.442;6.996;2023-05-02T02:44:21;100682.38;;;12.90;54.69
4570;BME280;2297;51.442;6.996;2023-05-02T02:46:59;100691.09;;;12.95;54.56
4570;BME280;2297;51.442;6.996;2023-05-02T02:49:34;100688.38;;;12.96;54.71
4570;BME280;2297;51.442;6.996;2023-05-02T02:52:10;100695.34;;;13.02;54.65
4570;BME280;2297;51.442;6.996;2023-05-02T02:54:44;100697.09;;;13.02;54.46
4570;BME280;2297;51.442;6.996;2023-05-02T02:57:16;100696.38;;;12.95;54.82
4570;BME280;2297;51.442;6.996;2023-05-02T02:59:50;100703.66;;;12.87;54.91
4570;BME280;2297;51.442;6.996;2023-05-02T03:02:21;100707.22;;;12.86;54.91
4570;BME280;2297;51.442;6.996;2023-05-02T03:04:52;100706.28;;;12.51;55.37
4570;BME280;2297;51.442;6.996;2023-05-02T03:07:19;100707.13;;;12.51;55.55
4570;BME280;2297;51.442;6.996;2023-05-02T03:09:47;100711.16;;;12.69;54.70
4570;BME280;2297;51.442;6.996;2023-05-02T03:12:13;100720.28;;;12.56;55.18
4570;BME280;2297;51.442;6.996;2023-05-02T03:14:41;100722.69;;;12.67;54.94
4570;BME280;2297;51.442;6.996;2023-05-02T03:17:07;100712.78;;;12.75;54.57
4570;BME280;2297;51.442;6.996;2023-05-02T03:19:36;100710.03;;;12.78;53.99
4570;BME280;2297;51.442;6.996;2023-05-02T03:22:03;100712.50;;;12.48;55.12
4570;BME280;2297;51.442;6.996;2023-05-02T03:24:30;100718.81;;;12.42;55.26
4570;BME280;2297;51.442;6.996;2023-05-02T03:26:57;100720.34;;;12.53;55.30
4570;BME280;2297;51.442;6.996;2023-05-02T03:29:24;100724.47;;;12.66;54.74
4570;BME280;2297;51.442;6.996;2023-05-02T03:31:51;100721.06;;;12.61;54.93
4570;BME280;2297;51.442;6.996;2023-05-02T03:34:17;100724.56;;;12.61;55.10
4570;BME280;2297;51.442;6.996;2023-05-02T03:36:47;100727.78;;;12.76;54.64
4570;BME280;2297;51.442;6.996;2023-05-02T03:39:14;100731.44;;;12.70;54.75
4570;BME280;2297;51.442;6.996;2023-05-02T03:41:41;100736.66;;;12.73;54.49
4570;BME280;2297;51.442;6.996;2023-05-02T03:44:08;100722.50;;;12.74;54.40
4570;BME280;2297;51.442;6.996;2023-05-02T03:46:34;100731.00;;;12.50;55.41
4570;BME280;2297;51.442;6.996;2023-05-02T03:49:01;100731.13;;;12.45;55.64
4570;BME280;2297;51.442;6.996;2023-05-02T03:51:28;100731.09;;;12.46;55.23
4570;BME280;2297;51.442;6.996;2023-05-02T03:53:56;100735.13;;;12.63;54.86
4570;BME280;2297;51.442;6.996;2023-05-02T03:56:22;100742.81;;;12.75;54.75
4570;BME280;2297;51.442;6.996;2023-05-02T03:58:49;100736.44;;;12.83;54.97
4570;BME280;2297;51.442;6.996;2023-05-02T04:01:16;100743.72;;;12.74;54.74
4570;BME280;2297;51.442;6.996;2023-05-02T04:03:42;100746.41;;;12.71;54.82
4570;BME280;2297;51.442;6.996;2023-05-02T04:06:09;100738.38;;;12.76;55.12
4570;BME280;2297;51.442;6.996;2023-05-02T04:08:37;100750.00;;;12.69;55.07
4570;BME280;2297;51.442;6.996;2023-05-02T04:11:05;100748.63;;;12.91;54.53
4570;BME280;2297;51.442;6.996;2023-05-02T04:13:32;100753.03;;;12.91;54.44
4570;BME280;2297;51.442;6.996;2023-05-02T04:15:58;100749.69;;;12.45;55.73
4570;BME280;2297;51.442;6.996;2023-05-02T04:18:25;100762.09;;;11.97;57.65
4570;BME280;2297;51.442;6.996;2023-05-02T04:20:52;100762.19;;;12.37;56.83
4570;BME280;2297;51.442;6.996;2023-05-02T04:23:18;100760.88;;;12.12;57.87
4570;BME280;2297;51.442;6.996;2023-05-02T04:25:50;100769.19;;;12.39;57.30
4570;BME280;2297;51.442;6.996;2023-05-02T04:28:19;100767.31;;;12.01;58.53
4570;BME280;2297;51.442;6.996;2023-05-02T04:30:46;100761.94;;;12.05;58.19
4570;BME280;2297;51.442;6.996;2023-05-02T04:33:13;100765.03;;;11.80;58.93
4570;BME280;2297;51.442;6.996;2023-05-02T04:35:40;100773.78;;;11.86;59.27
4570;BME280;2297;51.442;6.996;2023-05-02T04:38:06;100776.34;;;11.89;58.95
4570;BME280;2297;51.442;6.996;2023-05-02T04:40:33;100790.97;;;11.60;60.17
4570;BME280;2297;51.442;6.996;2023-05-02T04:43:00;100787.09;;;11.79;59.90
4570;BME280;2297;51.442;6.996;2023-05-02T04:45:28;100789.66;;;11.86;59.68
4570;BME280;2297;51.442;6.996;2023-05-02T04:47:55;100790.72;;;11.75;60.24
4570;BME280;2297;51.442;6.996;2023-05-02T04:50:22;100796.56;;;11.94;59.79
4570;BME280;2297;51.442;6.996;2023-05-02T04:52:48;100799.16;;;11.96;60.16
4570;BME280;2297;51.442;6.996;2023-05-02T04:55:15;100805.44;;;11.90;60.11
4570;BME280;2297;51.442;6.996;2023-05-02T04:57:41;100813.69;;;11.73;60.80
4570;BME280;2297;51.442;6.996;2023-05-02T05:00:09;100811.66;;;11.88;60.71
4570;BME280;2297;51.442;6.996;2023-05-02T05:02:37;100823.13;;;11.88;60.44
4570;BME280;2297;51.442;6.996;2023-05-02T05:05:04;100817.91;;;11.84;60.78
4570;BME280;2297;51.442;6.996;2023-05-02T05:07:31;100818.94;;;11.76;61.07
4570;BME280;2297;51.442;6.996;2023-05-02T05:09:58;100832.66;;;11.98;60.70
4570;BME280;2297;51.442;6.996;2023-05-02T05:12:24;100834.38;;;12.01;60.64
4570;BME280;2297;51.442;6.996;2023-05-02T05:14:51;100834.09;;;11.65;60.77
4570;BME280;2297;51.442;6.996;2023-05-02T05:17:18;100847.59;;;11.50;61.78
4570;BME280;2297;51.442;6.996;2023-05-02T05:19:46;100844.44;;;11.80;60.94
4570;BME280;2297;51.442;6.996;2023-05-02T05:22:12;100848.53;;;11.97;60.40
4570;BME280;2297;51.442;6.996;2023-05-02T05:24:39;100847.00;;;11.84;60.26
4570;BME280;2297;51.442;6.996;2023-05-02T05:27:06;100853.81;;;11.98;59.46
4570;BME280;2297;51.442;6.996;2023-05-02T05:29:32;100853.78;;;12.00;59.75
4570;BME280;2297;51.442;6.996;2023-05-02T05:31:59;100868.03;;;11.93;59.90
4570;BME280;2297;51.442;6.996;2023-05-02T05:34:26;100866.47;;;11.83;60.21
4570;BME280;2297;51.442;6.996;2023-05-02T05:36:54;100862.88;;;11.84;59.61
4570;BME280;2297;51.442;6.996;2023-05-02T05:39:48;100870.16;;;11.72;59.46
4570;BME280;2297;51.442;6.996;2023-05-02T05:42:15;100876.91;;;11.89;58.71
4570;BME280;2297;51.442;6.996;2023-05-02T05:44:42;100877.81;;;11.89;58.36
4570;BME280;2297;51.442;6.996;2023-05-02T05:47:08;100875.44;;;11.72;58.07
4570;BME280;2297;51.442;6.996;2023-05-02T05:49:35;100874.41;;;11.83;57.79
4570;BME280;2297;51.442;6.996;2023-05-02T05:52:03;100882.78;;;12.08;57.21
4570;BME280;2297;51.442;6.996;2023-05-02T05:54:30;100881.69;;;12.21;56.28
4570;BME280;2297;51.442;6.996;2023-05-02T05:56:57;100878.13;;;12.21;56.08
4570;BME280;2297;51.442;6.996;2023-05-02T05:59:24;100902.75;;;12.26;55.68
4570;BME280;2297;51.442;6.996;2023-05-02T06:01:52;100903.81;;;12.14;55.28
4570;BME280;2297;51.442;6.996;2023-05-02T06:04:19;100906.44;;;12.15;54.59
4570;BME280;2297;51.442;6.996;2023-05-02T06:06:46;100904.81;;;12.08;54.53
4570;BME280;2297;51.442;6.996;2023-05-02T06:09:14;100910.22;;;12.02;54.45
4570;BME280;2297;51.442;6.996;2023-05-02T06:11:40;100908.31;;;12.09;54.47
4570;BME280;2297;51.442;6.996;2023-05-02T06:14:07;100914.56;;;12.06;54.57
4570;BME280;2297;51.442;6.996;2023-05-02T06:16:34;100918.13;;;12.05;54.69
4570;BME280;2297;51.442;6.996;2023-05-02T06:19:00;100922.66;;;11.97;54.35
4570;BME280;2297;51.442;6.996;2023-05-02T06:21:27;100917.38;;;11.95;54.14
4570;BME280;2297;51.442;6.996;2023-05-02T06:23:53;100916.25;;;12.12;53.44
4570;BME280;2297;51.442;6.996;2023-05-02T06:26:21;100931.13;;;12.18;53.03
4570;BME280;2297;51.442;6.996;2023-05-02T06:28:48;100938.53;;;11.97;53.58
4570;BME280;2297;51.442;6.996;2023-05-02T06:31:15;100933.75;;;12.22;53.39
4570;BME280;2297;51.442;6.996;2023-05-02T06:33:41;100938.06;;;12.28;52.35
4570;BME280;2297;51.442;6.996;2023-05-02T06:36:08;100945.19;;;12.23;52.09
4570;BME280;2297;51.442;6.996;2023-05-02T06:38:35;100947.91;;;12.17;51.84
4570;BME280;2297;51.442;6.996;2023-05-02T06:41:01;100950.22;;;12.38;51.42
4570;BME280;2297;51.442;6.996;2023-05-02T06:43:29;100945.63;;;12.48;51.07
4570;BME280;2297;51.442;6.996;2023-05-02T06:45:57;100958.72;;;12.56;51.30
4570;BME280;2297;51.442;6.996;2023-05-02T06:48:23;100962.03;;;12.67;50.69
4570;BME280;2297;51.442;6.996;2023-05-02T06:50:51;100967.69;;;12.48;49.83
4570;BME280;2297;51.442;6.996;2023-05-02T06:53:17;100969.53;;;12.43;49.91
4570;BME280;2297;51.442;6.996;2023-05-02T06:55:44;100975.06;;;12.31;50.37
4570;BME280;2297;51.442;6.996;2023-05-02T06:58:12;100980.13;;;12.43;50.08
4570;BME280;2297;51.442;6.996;2023-05-02T07:00:40;100979.06;;;12.54;49.85
4570;BME280;2297;51.442;6.996;2023-05-02T07:03:07;100982.63;;;12.54;50.13
4570;BME280;2297;51.442;6.996;2023-05-02T07:05:35;100976.22;;;12.66;49.83
4570;BME280;2297;51.442;6.996;2023-05-02T07:08:02;100978.78;;;12.69;50.09
4570;BME280;2297;51.442;6.996;2023-05-02T07:10:29;100986.91;;;12.60;50.34
4570;BME280;2297;51.442;6.996;2023-05-02T07:12:56;100991.16;;;12.69;50.11
4570;BME280;2297;51.442;6.996;2023-05-02T07:15:32;100984.22;;;12.61;49.98
4570;BME280;2297;51.442;6.996;2023-05-02T07:18:00;100987.09;;;12.51;50.36
4570;BME280;2297;51.442;6.996;2023-05-02T07:20:26;101002.03;;;12.55;50.34
4570;BME280;2297;51.442;6.996;2023-05-02T07:22:53;101002.31;;;12.38;50.91
4570;BME280;2297;51.442;6.996;2023-05-02T07:25:20;101001.78;;;12.14;51.67
4570;BME280;2297;51.442;6.996;2023-05-02T07:27:47;101013.47;;;12.01;51.05
4570;BME280;2297;51.442;6.996;2023-05-02T07:30:13;101017.13;;;11.93;51.11
4570;BME280;2297;51.442;6.996;2023-05-02T07:32:40;101021.66;;;11.87;50.66
4570;BME280;2297;51.442;6.996;2023-05-02T07:35:08;101026.94;;;11.87;50.86
4570;BME280;2297;51.442;6.996;2023-05-02T07:37:35;101037.34;;;11.99;50.75
4570;BME280;2297;51.442;6.996;2023-05-02T07:40:02;101040.78;;;12.04;50.74
4570;BME280;2297;51.442;6.996;2023-05-02T07:42:29;101038.97;;;12.06;50.85
4570;BME280;2297;51.442;6.996;2023-05-02T07:44:56;101042.72;;;11.93;51.06
4570;BME280;2297;51.442;6.996;2023-05-02T07:47:23;101045.22;;;12.04;51.18
4570;BME280;2297;51.442;6.996;2023-05-02T07:49:51;101056.72;;;12.01;51.05
4570;BME280;2297;51.442;6.996;2023-05-02T07:52:20;101055.00;;;11.97;51.47
4570;BME280;2297;51.442;6.996;2023-05-02T07:54:47;101060.28;;;11.97;51.68
4570;BME280;2297;51.442;6.996;2023-05-02T07:57:14;101064.00;;;11.87;51.90
4570;BME280;2297;51.442;6.996;2023-05-02T07:59:41;101075.38;;;11.90;50.85
4570;BME280;2297;51.442;6.996;2023-05-02T08:02:07;101073.81;;;11.80;50.37
4570;BME280;2297;51.442;6.996;2023-05-02T08:04:35;101076.53;;;11.72;50.24
4570;BME280;2297;51.442;6.996;2023-05-02T08:07:02;101079.03;;;11.83;50.04
4570;BME280;2297;51.442;6.996;2023-05-02T08:09:30;101080.88;;;11.78;50.20
4570;BME280;2297;51.442;6.996;2023-05-02T08:11:56;101078.19;;;11.79;50.00
4570;BME280;2297;51.442;6.996;2023-05-02T08:14:23;101076.44;;;11.78;50.29
4570;BME280;2297;51.442;6.996;2023-05-02T08:16:49;101088.78;;;11.79;50.31
4570;BME280;2297;51.442;6.996;2023-05-02T08:19:16;101092.44;;;11.69;50.37
4570;BME280;2297;51.442;6.996;2023-05-02T08:21:43;101097.72;;;11.72;50.44
4570;BME280;2297;51.442;6.996;2023-05-02T08:24:09;101101.31;;;11.65;50.43
4570;BME280;2297;51.442;6.996;2023-05-02T08:26:37;101108.28;;;11.72;50.39
4570;BME280;2297;51.442;6.996;2023-05-02T08:29:04;101110.06;;;11.73;50.35
4570;BME280;2297;51.442;6.996;2023-05-02T08:31:31;101106.53;;;11.71;50.52
4570;BME280;2297;51.442;6.996;2023-05-02T08:33:58;101107.41;;;11.73;50.91
4570;BME280;2297;51.442;6.996;2023-05-02T08:36:25;101112.69;;;11.72;50.86
4570;BME280;2297;51.442;6.996;2023-05-02T08:38:53;101122.38;;;11.73;50.98
4570;BME280;2297;51.442;6.996;2023-05-02T08:41:20;101132.94;;;11.77;51.55
4570;BME280;2297;51.442;6.996;2023-05-02T08:43:49;101141.91;;;11.64;51.80
4570;BME280;2297;51.442;6.996;2023-05-02T08:46:16;101151.81;;;11.48;52.10
4570;BME280;2297;51.442;6.996;2023-05-02T08:48:44;101145.88;;;11.23;51.79
4570;BME280;2297;51.442;6.996;2023-05-02T08:51:13;101160.16;;;11.03;51.78
4570;BME280;2297;51.442;6.996;2023-05-02T08:53:41;101162.00;;;10.92;51.58
4570;BME280;2297;51.442;6.996;2023-05-02T08:56:09;101163.78;;;10.93;52.05
4570;BME280;2297;51.442;6.996;2023-05-02T08:58:37;101164.66;;;10.90;51.95
4570;BME280;2297;51.442;6.996;2023-05-02T09:01:09;101167.44;;;10.76;52.96
4570;BME280;2297;51.442;6.996;2023-05-02T09:03:38;101177.09;;;10.80;52.83
4570;BME280;2297;51.442;6.996;2023-05-02T09:06:07;101169.09;;;10.90;51.68
4570;BME280;2297;51.442;6.996;2023-05-02T09:08:35;101182.22;;;11.01;51.88
4570;BME280;2297;51.442;6.996;2023-05-02T09:11:03;101176.78;;;11.16;51.16
4570;BME280;2297;51.442;6.996;2023-05-02T09:13:32;101188.13;;;11.29;50.41
4570;BME280;2297;51.442;6.996;2023-05-02T09:16:00;101188.00;;;11.41;49.84
4570;BME280;2297;51.442;6.996;2023-05-02T09:18:30;101191.63;;;11.34;49.82
4570;BME280;2297;51.442;6.996;2023-05-02T09:20:58;101188.84;;;11.48;49.10
4570;BME280;2297;51.442;6.996;2023-05-02T09:23:35;101194.13;;;11.45;48.84
4570;BME280;2297;51.442;6.996;2023-05-02T09:26:17;101198.22;;;11.75;48.54
4570;BME280;2297;51.442;6.996;2023-05-02T09:28:44;101199.16;;;11.70;48.18
4570;BME280;2297;51.442;6.996;2023-05-02T09:31:13;101207.25;;;11.56;47.22
4570;BME280;2297;51.442;6.996;2023-05-02T09:33:42;101200.13;;;11.61;47.33
4570;BME280;2297;51.442;6.996;2023-05-02T09:36:11;101211.81;;;11.43;47.33
4570;BME280;2297;51.442;6.996;2023-05-02T09:38:40;101203.78;;;11.51;46.81
4570;BME280;2297;51.442;6.996;2023-05-02T09:41:06;101213.38;;;11.61;46.50
4570;BME280;2297;51.442;6.996;2023-05-02T09:43:33;101219.34;;;11.78;46.28
4570;BME280;2297;51.442;6.996;2023-05-02T09:46:01;101213.81;;;11.97;45.98
4570;BME280;2297;51.442;6.996;2023-05-02T09:48:29;101216.28;;;12.12;45.62
4570;BME280;2297;51.442;6.996;2023-05-02T09:50:58;101219.38;;;12.47;46.26
4570;BME280;2297;51.442;6.996;2023-05-02T09:53:26;101223.56;;;12.62;45.75
4570;BME280;2297;51.442;6.996;2023-05-02T09:56:00;101223.19;;;12.87;44.46
4570;BME280;2297;51.442;6.996;2023-05-02T09:58:27;101227.50;;;12.95;43.44
4570;BME280;2297;51.442;6.996;2023-05-02T10:00:55;101238.81;;;13.05;42.76
4570;BME280;2297;51.442;6.996;2023-05-02T10:03:24;101225.97;;;13.35;42.90
4570;BME280;2297;51.442;6.996;2023-05-02T10:05:51;101222.66;;;13.69;42.20
4570;BME280;2297;51.442;6.996;2023-05-02T10:08:21;101229.31;;;13.90;40.81
4570;BME280;2297;51.442;6.996;2023-05-02T10:10:53;101228.66;;;13.80;39.77
4570;BME280;2297;51.442;6.996;2023-05-02T10:13:22;101230.91;;;13.55;39.58
4570;BME280;2297;51.442;6.996;2023-05-02T10:15:57;101240.91;;;13.41;39.87
4570;BME280;2297;51.442;6.996;2023-05-02T10:18:28;101231.91;;;13.50;39.95
4570;BME280;2297;51.442;6.996;2023-05-02T10:20:57;101233.59;;;13.54;39.57
4570;BME280;2297;51.442;6.996;2023-05-02T10:23:27;101227.25;;;13.61;39.89
4570;BME280;2297;51.442;6.996;2023-05-02T10:25:54;101229.00;;;13.62;40.26
4570;BME280;2297;51.442;6.996;2023-05-02T10:28:21;101228.75;;;13.74;40.18
4570;BME280;2297;51.442;6.996;2023-05-02T10:30:49;101223.19;;;13.88;40.88
4570;BME280;2297;51.442;6.996;2023-05-02T10:33:16;101224.38;;;14.16;40.73
4570;BME280;2297;51.442;6.996;2023-05-02T10:35:44;101234.09;;;14.17;39.07
4570;BME280;2297;51.442;6.996;2023-05-02T10:38:13;101230.91;;;14.01;38.88
4570;BME280;2297;51.442;6.996;2023-05-02T10:40:49;101221.44;;;13.87;38.50
4570;BME280;2297;51.442;6.996;2023-05-02T10:43:21;101231.94;;;13.92;38.86
4570;BME280;2297;51.442;6.996;2023-05-02T10:45:48;101229.31;;;13.90;38.63
4570;BME280;2297;51.442;6.996;2023-05-02T10:48:18;101228.66;;;13.80;39.22
4570;BME280;2297;51.442;6.996;2023-05-02T10:50:46;101239.69;;;13.59;38.70
4570;BME280;2297;51.442;6.996;2023-05-02T10:53:27;101236.41;;;13.43;37.98
4570;BME280;2297;51.442;6.996;2023-05-02T10:56:10;101230.53;;;13.25;38.01
4570;BME280;2297;51.442;6.996;2023-05-02T10:58:37;101231.16;;;13.41;38.95
4570;BME280;2297;51.442;6.996;2023-05-02T11:01:35;101229.75;;;13.19;37.60
4570;BME280;2297;51.442;6.996;2023-05-02T11:04:07;101233.22;;;13.24;37.71
4570;BME280;2297;51.442;6.996;2023-05-02T11:06:35;101242.81;;;13.33;37.68
4570;BME280;2297;51.442;6.996;2023-05-02T11:09:30;101243.75;;;13.30;37.03
4570;BME280;2297;51.442;6.996;2023-05-02T11:11:59;101252.44;;;13.38;36.67
4570;BME280;2297;51.442;6.996;2023-05-02T11:14:45;101249.16;;;13.24;37.30
4570;BME280;2297;51.442;6.996;2023-05-02T11:17:15;101251.66;;;13.32;37.24
4570;BME280;2297;51.442;6.996;2023-05-02T11:22:55;101249.50;;;13.52;36.76
4570;BME280;2297;51.442;6.996;2023-05-02T11:25:44;101247.97;;;13.42;35.88
4570;BME280;2297;51.442;6.996;2023-05-02T11:28:43;101259.09;;;13.61;36.42
4570;BME280;2297;51.442;6.996;2023-05-02T11:34:27;101257.66;;;13.90;34.46
4570;BME280;2297;51.442;6.996;2023-05-02T11:36:54;101254.13;;;13.91;34.00
4570;BME280;2297;51.442;6.996;2023-05-02T11:39:20;101254.75;;;14.02;33.65
4570;BME280;2297;51.442;6.996;2023-05-02T11:41:47;101249.38;;;14.05;33.27
4570;BME280;2297;51.442;6.996;2023-05-02T11:44:16;101253.38;;;13.83;33.24
4570;BME280;2297;51.442;6.996;2023-05-02T11:50:06;101257.84;;;14.26;32.35
4570;BME280;2297;51.442;6.996;2023-05-02T11:52:36;101260.66;;;14.17;31.98
4570;BME280;2297;51.442;6.996;2023-05-02T11:55:04;101259.25;;;14.42;32.13
4570;BME280;2297;51.442;6.996;2023-05-02T11:57:33;101260.63;;;14.60;32.57
4570;BME280;2297;51.442;6.996;2023-05-02T12:00:02;101261.22;;;14.73;31.80
4570;BME280;2297;51.442;6.996;2023-05-02T12:02:35;101261.91;;;14.82;32.14
4570;BME280;2297;51.442;6.996;2023-05-02T12:05:03;101261.19;;;14.75;32.46
4570;BME280;2297;51.442;6.996;2023-05-02T12:07:35;101263.00;;;14.34;32.53
4570;BME280;2297;51.442;6.996;2023-05-02T12:10:02;101265.13;;;14.57;32.40
4570;BME280;2297;51.442;6.996;2023-05-02T12:12:30;101281.03;;;14.60;32.60
4570;BME280;2297;51.442;6.996;2023-05-02T12:14:57;101274.66;;;14.67;32.52
4570;BME280;2297;51.442;6.996;2023-05-02T12:17:25;101286.69;;;13.99;32.35
4570;BME280;2297;51.442;6.996;2023-05-02T12:19:51;101282.75;;;13.75;32.86
4570;BME280;2297;51.442;6.996;2023-05-02T12:22:18;101288.47;;;14.00;32.21
4570;BME280;2297;51.442;6.996;2023-05-02T12:24:45;101284.22;;;14.35;31.46
4570;BME280;2297;51.442;6.996;2023-05-02T12:27:13;101282.53;;;14.31;31.79
4570;BME280;2297;51.442;6.996;2023-05-02T12:29:41;101291.59;;;14.21;31.96
4570;BME280;2297;51.442;6.996;2023-05-02T12:32:08;101295.03;;;14.26;31.53
4570;BME280;2297;51.442;6.996;2023-05-02T12:34:37;101307.72;;;14.10;31.93
4570;BME280;2297;51.442;6.996;2023-05-02T12:37:04;101292.38;;;14.26;31.36
4570;BME280;2297;51.442;6.996;2023-05-02T12:39:34;101301.06;;;14.34;31.49
4570;BME280;2297;51.442;6.996;2023-05-02T12:42:08;101301.25;;;14.67;31.55
4570;BME280;2297;51.442;6.996;2023-05-02T12:44:35;101304.38;;;14.85;30.55
4570;BME280;2297;51.442;6.996;2023-05-02T12:47:03;101301.38;;;14.61;31.21
4570;BME280;2297;51.442;6.996;2023-05-02T12:49:30;101299.97;;;14.85;30.72
4570;BME280;2297;51.442;6.996;2023-05-02T12:51:58;101308.94;;;14.81;31.01
4570;BME280;2297;51.442;6.996;2023-05-02T12:54:24;101309.44;;;14.97;29.99
4570;BME280;2297;51.442;6.996;2023-05-02T12:56:51;101307.81;;;14.90;30.15
4570;BME280;2297;51.442;6.996;2023-05-02T12:59:26;101306.31;;;15.17;30.57
4570;BME280;2297;51.442;6.996;2023-05-02T13:01:52;101313.81;;;15.37;30.57
4570;BME280;2297;51.442;6.996;2023-05-02T13:04:19;101320.66;;;15.47;29.46
4570;BME280;2297;51.442;6.996;2023-05-02T13:06:46;101306.69;;;15.72;29.77
4570;BME280;2297;51.442;6.996;2023-05-02T13:09:14;101309.28;;;15.75;29.27
4570;BME280;2297;51.442;6.996;2023-05-02T13:11:40;101306.41;;;16.16;29.28
4570;BME280;2297;51.442;6.996;2023-05-02T13:14:08;101315.13;;;15.90;28.36
4570;BME280;2297;51.442;6.996;2023-05-02T13:16:35;101306.22;;;15.89;28.48
4570;BME280;2297;51.442;6.996;2023-05-02T13:19:02;101317.53;;;15.66;28.82
4570;BME280;2297;51.442;6.996;2023-05-02T13:21:29;101307.63;;;15.71;28.99
4570;BME280;2297;51.442;6.996;2023-05-02T13:23:55;101313.19;;;15.62;29.11
4570;BME280;2297;51.442;6.996;2023-05-02T13:26:24;101313.25;;;15.59;29.89
4570;BME280;2297;51.442;6.996;2023-05-02T13:28:51;101311.44;;;15.61;29.58